Stanley, Canada
Current Conditions -  °F | °C
As of 3:00 PM on Monday 22 Dec 2014 (Local Time) from CYFC Reporting Station
Clear Clear  
Wind Chill: 20°   Ceiling: Unl
Heat Index: 28°   Visibility: 9mi
Dew Point: 23°   Wind: 8mph
Humidity: 80%   Direction: 60°ENE
Pressure: 30.42"   Gusts: NA
Location:  46.28°N, 66.73°W
Report Text: CYFC 221900Z AUTO 06007KT 9SM CLR M02/M05 A3042 RMK SLP303
Loading
Personal Weather Stations






























Interactive Weather Map New forecast layout! Learn more

10-Day Weather Forecast

Advertisements
Track Severe Weather on mobile